sensor_id;sensor_type;location;lat;lon;timestamp;P1;durP1;ratioP1;P2;durP2;ratioP2
64180;SDS011;62038;-29.692;-51.150;2023-04-09T13:43:21;9.40;;;2.88;;
64180;SDS011;62038;-29.692;-51.150;2023-04-09T13:45:56;2.85;;;2.33;;
64180;SDS011;62038;-29.692;-51.150;2023-04-09T13:48:27;4.78;;;2.70;;
64180;SDS011;62038;-29.692;-51.150;2023-04-09T13:50:59;4.57;;;2.75;;
64180;SDS011;62038;-29.692;-51.150;2023-04-09T13:53:31;3.65;;;2.63;;
64180;SDS011;62038;-29.692;-51.150;2023-04-09T13:56:02;3.55;;;2.67;;
64180;SDS011;62038;-29.692;-51.150;2023-04-09T13:58:34;3.15;;;2.60;;
64180;SDS011;62038;-29.692;-51.150;2023-04-09T14:01:06;3.35;;;2.42;;
64180;SDS011;62038;-29.692;-51.150;2023-04-09T14:03:37;4.40;;;3.08;;
64180;SDS011;62038;-29.692;-51.150;2023-04-09T14:06:08;3.78;;;2.38;;
64180;SDS011;62038;-29.692;-51.150;2023-04-09T14:08:39;8.52;;;2.60;;
64180;SDS011;62038;-29.692;-51.150;2023-04-09T14:13:43;3.25;;;2.35;;
64180;SDS011;62038;-29.692;-51.150;2023-04-09T14:16:16;2.00;;;1.88;;
64180;SDS011;62038;-29.692;-51.150;2023-04-09T14:18:47;7.30;;;2.25;;
64180;SDS011;62038;-29.692;-51.150;2023-04-09T14:21:19;3.95;;;1.80;;
64180;SDS011;62038;-29.692;-51.150;2023-04-09T14:23:51;3.53;;;2.10;;
64180;SDS011;62038;-29.692;-51.150;2023-04-09T14:26:22;2.67;;;1.92;;
64180;SDS011;62038;-29.692;-51.150;2023-04-09T14:28:52;1.87;;;1.77;;
64180;SDS011;62038;-29.692;-51.150;2023-04-09T14:31:23;2.15;;;1.73;;
64180;SDS011;62038;-29.692;-51.150;2023-04-09T14:33:55;7.95;;;2.40;;
64180;SDS011;62038;-29.692;-51.150;2023-04-09T14:36:26;2.50;;;2.22;;
64180;SDS011;62038;-29.692;-51.150;2023-04-09T14:38:57;4.03;;;2.38;;
64180;SDS011;62038;-29.692;-51.150;2023-04-09T14:41:28;2.30;;;2.10;;
64180;SDS011;62038;-29.692;-51.150;2023-04-09T14:44:02;2.80;;;2.35;;
64180;SDS011;62038;-29.692;-51.150;2023-04-09T14:49:06;3.05;;;2.42;;
64180;SDS011;62038;-29.692;-51.150;2023-04-09T14:51:38;4.00;;;2.50;;
64180;SDS011;62038;-29.692;-51.150;2023-04-09T14:54:09;7.90;;;2.67;;
64180;SDS011;62038;-29.692;-51.150;2023-04-09T14:56:40;4.72;;;2.58;;
64180;SDS011;62038;-29.692;-51.150;2023-04-09T14:59:10;3.05;;;2.60;;
64180;SDS011;62038;-29.692;-51.150;2023-04-09T15:01:42;4.75;;;1.98;;
64180;SDS011;62038;-29.692;-51.150;2023-04-09T15:04:14;3.28;;;2.20;;
64180;SDS011;62038;-29.692;-51.150;2023-04-09T15:06:45;3.92;;;2.70;;
64180;SDS011;62038;-29.692;-51.150;2023-04-09T15:09:16;3.40;;;1.80;;
64180;SDS011;62038;-29.692;-51.150;2023-04-09T15:11:48;6.72;;;2.10;;
64180;SDS011;62038;-29.692;-51.150;2023-04-09T15:14:21;2.65;;;2.05;;
64180;SDS011;62038;-29.692;-51.150;2023-04-09T15:16:52;4.55;;;2.28;;
64180;SDS011;62038;-29.692;-51.150;2023-04-09T15:19:24;3.33;;;2.20;;
64180;SDS011;62038;-29.692;-51.150;2023-04-09T15:21:55;2.78;;;2.35;;
64180;SDS011;62038;-29.692;-51.150;2023-04-09T15:24:27;3.83;;;2.72;;
64180;SDS011;62038;-29.692;-51.150;2023-04-09T15:26:59;3.22;;;2.38;;
64180;SDS011;62038;-29.692;-51.150;2023-04-09T15:29:32;3.75;;;3.10;;
64180;SDS011;62038;-29.692;-51.150;2023-04-09T15:32:03;2.47;;;2.25;;
64180;SDS011;62038;-29.692;-51.150;2023-04-09T15:34:34;2.55;;;1.88;;
64180;SDS011;62038;-29.692;-51.150;2023-04-09T15:37:06;2.92;;;2.15;;
64180;SDS011;62038;-29.692;-51.150;2023-04-09T15:39:37;4.63;;;2.17;;
64180;SDS011;62038;-29.692;-51.150;2023-04-09T15:42:09;3.67;;;2.40;;
64180;SDS011;62038;-29.692;-51.150;2023-04-09T15:44:42;3.13;;;1.95;;
64180;SDS011;62038;-29.692;-51.150;2023-04-09T15:49:44;3.25;;;2.38;;
64180;SDS011;62038;-29.692;-51.150;2023-04-09T15:52:15;3.03;;;2.50;;
64180;SDS011;62038;-29.692;-51.150;2023-04-09T15:54:46;3.40;;;2.85;;
64180;SDS011;62038;-29.692;-51.150;2023-04-09T15:57:18;3.30;;;2.60;;
64180;SDS011;62038;-29.692;-51.150;2023-04-09T15:59:51;4.65;;;2.83;;
64180;SDS011;62038;-29.692;-51.150;2023-04-09T16:02:22;5.45;;;3.40;;
64180;SDS011;62038;-29.692;-51.150;2023-04-09T16:04:56;11.48;;;7.15;;
64180;SDS011;62038;-29.692;-51.150;2023-04-09T16:07:27;5.32;;;4.05;;
64180;SDS011;62038;-29.692;-51.150;2023-04-09T16:10:00;5.10;;;3.70;;
64180;SDS011;62038;-29.692;-51.150;2023-04-09T16:12:33;3.72;;;3.15;;
64180;SDS011;62038;-29.692;-51.150;2023-04-09T16:15:05;4.85;;;3.17;;
64180;SDS011;62038;-29.692;-51.150;2023-04-09T16:17:36;4.90;;;4.35;;
64180;SDS011;62038;-29.692;-51.150;2023-04-09T16:20:08;5.05;;;3.50;;
64180;SDS011;62038;-29.692;-51.150;2023-04-09T16:22:40;7.03;;;6.32;;
64180;SDS011;62038;-29.692;-51.150;2023-04-09T16:25:11;6.38;;;3.50;;
64180;SDS011;62038;-29.692;-51.150;2023-04-09T16:30:13;4.65;;;3.50;;
64180;SDS011;62038;-29.692;-51.150;2023-04-09T16:32:45;4.22;;;3.53;;
64180;SDS011;62038;-29.692;-51.150;2023-04-09T16:35:17;5.20;;;3.17;;
64180;SDS011;62038;-29.692;-51.150;2023-04-09T16:37:49;4.55;;;3.30;;
64180;SDS011;62038;-29.692;-51.150;2023-04-09T16:40:21;6.95;;;3.80;;
64180;SDS011;62038;-29.692;-51.150;2023-04-09T16:42:53;5.90;;;3.55;;
64180;SDS011;62038;-29.692;-51.150;2023-04-09T16:45:24;4.30;;;3.10;;
64180;SDS011;62038;-29.692;-51.150;2023-04-09T16:47:55;4.35;;;3.30;;
64180;SDS011;62038;-29.692;-51.150;2023-04-09T16:50:27;2.95;;;2.72;;
64180;SDS011;62038;-29.692;-51.150;2023-04-09T16:52:59;5.57;;;3.35;;
64180;SDS011;62038;-29.692;-51.150;2023-04-09T16:55:33;5.32;;;2.88;;
64180;SDS011;62038;-29.692;-51.150;2023-04-09T16:58:04;3.75;;;2.95;;
64180;SDS011;62038;-29.692;-51.150;2023-04-09T17:00:36;5.40;;;3.03;;
64180;SDS011;62038;-29.692;-51.150;2023-04-09T17:03:26;4.70;;;3.07;;
64180;SDS011;62038;-29.692;-51.150;2023-04-09T17:05:57;4.40;;;2.85;;
64180;SDS011;62038;-29.692;-51.150;2023-04-09T17:08:27;5.07;;;2.90;;
64180;SDS011;62038;-29.692;-51.150;2023-04-09T17:10:59;4.45;;;2.88;;
64180;SDS011;62038;-29.692;-51.150;2023-04-09T17:13:31;3.17;;;2.78;;
64180;SDS011;62038;-29.692;-51.150;2023-04-09T17:16:06;3.13;;;2.40;;
64180;SDS011;62038;-29.692;-51.150;2023-04-09T17:18:40;5.07;;;2.75;;
64180;SDS011;62038;-29.692;-51.150;2023-04-09T17:21:12;4.57;;;2.85;;
64180;SDS011;62038;-29.692;-51.150;2023-04-09T17:23:45;3.60;;;2.70;;
64180;SDS011;62038;-29.692;-51.150;2023-04-09T17:26:16;2.95;;;2.50;;
64180;SDS011;62038;-29.692;-51.150;2023-04-09T17:28:49;4.70;;;3.28;;
64180;SDS011;62038;-29.692;-51.150;2023-04-09T17:31:21;3.53;;;2.75;;
64180;SDS011;62038;-29.692;-51.150;2023-04-09T17:33:53;3.95;;;2.78;;
64180;SDS011;62038;-29.692;-51.150;2023-04-09T17:36:24;4.43;;;2.45;;
64180;SDS011;62038;-29.692;-51.150;2023-04-09T17:38:56;4.82;;;2.45;;
64180;SDS011;62038;-29.692;-51.150;2023-04-09T17:41:28;2.90;;;2.60;;
64180;SDS011;62038;-29.692;-51.150;2023-04-09T17:43:59;3.75;;;2.65;;
64180;SDS011;62038;-29.692;-51.150;2023-04-09T17:46:30;2.53;;;2.30;;
64180;SDS011;62038;-29.692;-51.150;2023-04-09T17:49:01;2.75;;;2.55;;
64180;SDS011;62038;-29.692;-51.150;2023-04-09T17:51:33;3.22;;;2.60;;
64180;SDS011;62038;-29.692;-51.150;2023-04-09T17:54:06;3.55;;;2.80;;
64180;SDS011;62038;-29.692;-51.150;2023-04-09T17:56:38;4.32;;;2.78;;
64180;SDS011;62038;-29.692;-51.150;2023-04-09T17:59:09;4.45;;;2.70;;
64180;SDS011;62038;-29.692;-51.150;2023-04-09T18:01:40;3.25;;;2.55;;
64180;SDS011;62038;-29.692;-51.150;2023-04-09T18:04:12;5.18;;;2.33;;
64180;SDS011;62038;-29.692;-51.150;2023-04-09T18:06:45;3.38;;;2.72;;
64180;SDS011;62038;-29.692;-51.150;2023-04-09T18:09:17;2.47;;;2.25;;
64180;SDS011;62038;-29.692;-51.150;2023-04-09T18:11:48;7.05;;;2.30;;
64180;SDS011;62038;-29.692;-51.150;2023-04-09T18:14:25;14.55;;;2.55;;
64180;SDS011;62038;-29.692;-51.150;2023-04-09T18:16:56;11.50;;;2.72;;
64180;SDS011;62038;-29.692;-51.150;2023-04-09T18:19:29;5.00;;;2.13;;
64180;SDS011;62038;-29.692;-51.150;2023-04-09T18:22:00;4.13;;;2.00;;
64180;SDS011;62038;-29.692;-51.150;2023-04-09T18:24:31;9.45;;;2.10;;
64180;SDS011;62038;-29.692;-51.150;2023-04-09T18:27:03;5.28;;;1.90;;
64180;SDS011;62038;-29.692;-51.150;2023-04-09T18:29:35;2.13;;;1.80;;
64180;SDS011;62038;-29.692;-51.150;2023-04-09T18:32:06;3.55;;;1.70;;
64180;SDS011;62038;-29.692;-51.150;2023-04-09T18:34:38;1.60;;;1.40;;
64180;SDS011;62038;-29.692;-51.150;2023-04-09T18:37:09;3.08;;;1.77;;
64180;SDS011;62038;-29.692;-51.150;2023-04-09T18:39:41;5.60;;;1.70;;
64180;SDS011;62038;-29.692;-51.150;2023-04-09T18:42:13;4.40;;;1.73;;
64180;SDS011;62038;-29.692;-51.150;2023-04-09T18:44:44;2.15;;;1.42;;
64180;SDS011;62038;-29.692;-51.150;2023-04-09T18:47:15;1.90;;;1.48;;
64180;SDS011;62038;-29.692;-51.150;2023-04-09T18:49:46;2.80;;;1.30;;
64180;SDS011;62038;-29.692;-51.150;2023-04-09T18:52:16;1.40;;;1.23;;
64180;SDS011;62038;-29.692;-51.150;2023-04-09T18:54:45;1.77;;;1.55;;
64180;SDS011;62038;-29.692;-51.150;2023-04-09T18:57:17;4.57;;;1.50;;
64180;SDS011;62038;-29.692;-51.150;2023-04-09T18:59:49;2.53;;;1.52;;
64180;SDS011;62038;-29.692;-51.150;2023-04-09T19:02:20;4.53;;;1.30;;
64180;SDS011;62038;-29.692;-51.150;2023-04-09T19:04:52;1.10;;;1.00;;
64180;SDS011;62038;-29.692;-51.150;2023-04-09T19:07:25;1.90;;;1.20;;
64180;SDS011;62038;-29.692;-51.150;2023-04-09T19:09:56;6.38;;;1.50;;
64180;SDS011;62038;-29.692;-51.150;2023-04-09T19:12:28;4.55;;;1.50;;
64180;SDS011;62038;-29.692;-51.150;2023-04-09T19:15:00;3.70;;;1.50;;
64180;SDS011;62038;-29.692;-51.150;2023-04-09T19:17:33;2.72;;;1.15;;
64180;SDS011;62038;-29.692;-51.150;2023-04-09T19:20:05;4.28;;;1.30;;
64180;SDS011;62038;-29.692;-51.150;2023-04-09T19:22:37;2.53;;;1.52;;
64180;SDS011;62038;-29.692;-51.150;2023-04-09T19:25:10;3.97;;;1.52;;
64180;SDS011;62038;-29.692;-51.150;2023-04-09T19:27:42;2.85;;;1.60;;
64180;SDS011;62038;-29.692;-51.150;2023-04-09T19:30:13;3.03;;;1.40;;
64180;SDS011;62038;-29.692;-51.150;2023-04-09T19:32:44;4.18;;;1.45;;
64180;SDS011;62038;-29.692;-51.150;2023-04-09T19:35:15;4.55;;;1.52;;
64180;SDS011;62038;-29.692;-51.150;2023-04-09T19:37:46;1.95;;;1.35;;
64180;SDS011;62038;-29.692;-51.150;2023-04-09T19:40:18;2.90;;;1.30;;
64180;SDS011;62038;-29.692;-51.150;2023-04-09T19:42:49;1.83;;;1.23;;
64180;SDS011;62038;-29.692;-51.150;2023-04-09T19:45:20;4.97;;;1.30;;
64180;SDS011;62038;-29.692;-51.150;2023-04-09T19:47:52;2.13;;;1.30;;
64180;SDS011;62038;-29.692;-51.150;2023-04-09T19:50:23;2.88;;;1.25;;
64180;SDS011;62038;-29.692;-51.150;2023-04-09T19:52:55;1.75;;;1.30;;
64180;SDS011;62038;-29.692;-51.150;2023-04-09T19:55:26;3.53;;;1.30;;
64180;SDS011;62038;-29.692;-51.150;2023-04-09T19:57:57;8.32;;;1.73;;
64180;SDS011;62038;-29.692;-51.150;2023-04-09T20:00:29;5.45;;;1.10;;
64180;SDS011;62038;-29.692;-51.150;2023-04-09T20:03:00;4.45;;;1.23;;
64180;SDS011;62038;-29.692;-51.150;2023-04-09T20:05:34;2.80;;;1.10;;
64180;SDS011;62038;-29.692;-51.150;2023-04-09T20:08:06;4.43;;;1.30;;
64180;SDS011;62038;-29.692;-51.150;2023-04-09T20:10:42;1.83;;;1.20;;
64180;SDS011;62038;-29.692;-51.150;2023-04-09T20:13:15;5.30;;;1.20;;
64180;SDS011;62038;-29.692;-51.150;2023-04-09T20:15:46;7.80;;;1.40;;
64180;SDS011;62038;-29.692;-51.150;2023-04-09T20:18:18;2.80;;;1.30;;
64180;SDS011;62038;-29.692;-51.150;2023-04-09T20:20:50;5.07;;;1.33;;
64180;SDS011;62038;-29.692;-51.150;2023-04-09T20:23:22;2.90;;;1.20;;
64180;SDS011;62038;-29.692;-51.150;2023-04-09T20:25:53;4.07;;;1.10;;
64180;SDS011;62038;-29.692;-51.150;2023-04-09T20:28:24;3.13;;;1.40;;
64180;SDS011;62038;-29.692;-51.150;2023-04-09T20:30:56;1.80;;;1.10;;
64180;SDS011;62038;-29.692;-51.150;2023-04-09T20:33:26;2.03;;;1.07;;
64180;SDS011;62038;-29.692;-51.150;2023-04-09T20:35:58;3.83;;;1.00;;
64180;SDS011;62038;-29.692;-51.150;2023-04-09T20:38:29;1.73;;;1.00;;
64180;SDS011;62038;-29.692;-51.150;2023-04-09T20:41:01;5.00;;;1.38;;
64180;SDS011;62038;-29.692;-51.150;2023-04-09T20:43:32;2.90;;;1.35;;
64180;SDS011;62038;-29.692;-51.150;2023-04-09T20:46:03;1.65;;;1.10;;
64180;SDS011;62038;-29.692;-51.150;2023-04-09T20:51:07;2.47;;;1.50;;
64180;SDS011;62038;-29.692;-51.150;2023-04-09T20:53:42;5.68;;;1.20;;
64180;SDS011;62038;-29.692;-51.150;2023-04-09T20:56:14;4.10;;;1.50;;
64180;SDS011;62038;-29.692;-51.150;2023-04-09T20:58:45;3.08;;;1.48;;
64180;SDS011;62038;-29.692;-51.150;2023-04-09T21:01:16;4.38;;;1.73;;
64180;SDS011;62038;-29.692;-51.150;2023-04-09T21:03:48;2.15;;;1.58;;
64180;SDS011;62038;-29.692;-51.150;2023-04-09T21:06:20;3.85;;;2.13;;
64180;SDS011;62038;-29.692;-51.150;2023-04-09T21:08:52;2.90;;;1.92;;
64180;SDS011;62038;-29.692;-51.150;2023-04-09T21:11:27;4.55;;;2.30;;
64180;SDS011;62038;-29.692;-51.150;2023-04-09T21:13:59;5.75;;;1.90;;
64180;SDS011;62038;-29.692;-51.150;2023-04-09T21:16:32;12.25;;;2.72;;
64180;SDS011;62038;-29.692;-51.150;2023-04-09T21:19:04;7.95;;;2.28;;
64180;SDS011;62038;-29.692;-51.150;2023-04-09T21:21:37;10.82;;;2.83;;
64180;SDS011;62038;-29.692;-51.150;2023-04-09T21:24:08;7.45;;;2.22;;
64180;SDS011;62038;-29.692;-51.150;2023-04-09T21:26:39;5.38;;;2.42;;
64180;SDS011;62038;-29.692;-51.150;2023-04-09T21:29:19;5.70;;;2.00;;
64180;SDS011;62038;-29.692;-51.150;2023-04-09T21:31:50;8.23;;;2.20;;
64180;SDS011;62038;-29.692;-51.150;2023-04-09T21:34:22;12.43;;;2.50;;
64180;SDS011;62038;-29.692;-51.150;2023-04-09T21:36:53;9.40;;;2.45;;
64180;SDS011;62038;-29.692;-51.150;2023-04-09T21:39:25;6.85;;;2.25;;
64180;SDS011;62038;-29.692;-51.150;2023-04-09T21:41:56;6.13;;;2.25;;
64180;SDS011;62038;-29.692;-51.150;2023-04-09T21:44:28;5.68;;;2.30;;
64180;SDS011;62038;-29.692;-51.150;2023-04-09T21:46:58;9.00;;;2.42;;
64180;SDS011;62038;-29.692;-51.150;2023-04-09T21:52:00;6.70;;;3.08;;
64180;SDS011;62038;-29.692;-51.150;2023-04-09T21:54:32;6.20;;;2.65;;
64180;SDS011;62038;-29.692;-51.150;2023-04-09T21:57:04;9.23;;;2.60;;
64180;SDS011;62038;-29.692;-51.150;2023-04-09T21:59:36;5.30;;;2.20;;
64180;SDS011;62038;-29.692;-51.150;2023-04-09T22:02:10;5.82;;;2.40;;
64180;SDS011;62038;-29.692;-51.150;2023-04-09T22:04:41;7.18;;;2.22;;
64180;SDS011;62038;-29.692;-51.150;2023-04-09T22:07:12;3.67;;;1.92;;
64180;SDS011;62038;-29.692;-51.150;2023-04-09T22:09:44;5.72;;;1.80;;
64180;SDS011;62038;-29.692;-51.150;2023-04-09T22:12:16;5.07;;;2.10;;
64180;SDS011;62038;-29.692;-51.150;2023-04-09T22:17:18;7.13;;;2.42;;
64180;SDS011;62038;-29.692;-51.150;2023-04-09T22:19:49;5.85;;;2.10;;
64180;SDS011;62038;-29.692;-51.150;2023-04-09T22:22:20;9.63;;;1.92;;
64180;SDS011;62038;-29.692;-51.150;2023-04-09T22:24:51;6.40;;;2.05;;
64180;SDS011;62038;-29.692;-51.150;2023-04-09T22:27:23;5.85;;;2.40;;
64180;SDS011;62038;-29.692;-51.150;2023-04-09T22:29:54;4.85;;;2.00;;
64180;SDS011;62038;-29.692;-51.150;2023-04-09T22:32:25;4.72;;;2.53;;
64180;SDS011;62038;-29.692;-51.150;2023-04-09T22:34:56;5.40;;;2.10;;
64180;SDS011;62038;-29.692;-51.150;2023-04-09T22:37:26;6.50;;;2.22;;
64180;SDS011;62038;-29.692;-51.150;2023-04-09T22:39:56;5.97;;;2.60;;
64180;SDS011;62038;-29.692;-51.150;2023-04-09T22:42:27;12.82;;;2.72;;
64180;SDS011;62038;-29.692;-51.150;2023-04-09T22:44:58;4.38;;;2.40;;
64180;SDS011;62038;-29.692;-51.150;2023-04-09T22:47:29;7.88;;;2.15;;
64180;SDS011;62038;-29.692;-51.150;2023-04-09T22:50:01;5.07;;;2.35;;
64180;SDS011;62038;-29.692;-51.150;2023-04-09T22:52:31;4.95;;;2.33;;
64180;SDS011;62038;-29.692;-51.150;2023-04-09T22:55:02;6.90;;;2.77;;
64180;SDS011;62038;-29.692;-51.150;2023-04-09T22:57:33;8.85;;;2.60;;
64180;SDS011;62038;-29.692;-51.150;2023-04-09T23:00:06;5.32;;;2.47;;
64180;SDS011;62038;-29.692;-51.150;2023-04-09T23:02:39;7.75;;;2.53;;
64180;SDS011;62038;-29.692;-51.150;2023-04-09T23:05:10;8.77;;;2.13;;
64180;SDS011;62038;-29.692;-51.150;2023-04-09T23:07:40;4.03;;;2.30;;
64180;SDS011;62038;-29.692;-51.150;2023-04-09T23:10:13;5.53;;;2.13;;
64180;SDS011;62038;-29.692;-51.150;2023-04-09T23:12:45;6.70;;;2.30;;
64180;SDS011;62038;-29.692;-51.150;2023-04-09T23:17:48;5.82;;;2.30;;
64180;SDS011;62038;-29.692;-51.150;2023-04-09T23:20:21;4.93;;;2.00;;
64180;SDS011;62038;-29.692;-51.150;2023-04-09T23:22:51;8.23;;;2.38;;
64180;SDS011;62038;-29.692;-51.150;2023-04-09T23:25:23;6.80;;;2.35;;
64180;SDS011;62038;-29.692;-51.150;2023-04-09T23:27:53;6.28;;;2.30;;
64180;SDS011;62038;-29.692;-51.150;2023-04-09T23:32:55;6.38;;;2.80;;
64180;SDS011;62038;-29.692;-51.150;2023-04-09T23:35:25;8.77;;;2.83;;
64180;SDS011;62038;-29.692;-51.150;2023-04-09T23:37:55;9.68;;;2.58;;
64180;SDS011;62038;-29.692;-51.150;2023-04-09T23:40:26;6.78;;;3.00;;
64180;SDS011;62038;-29.692;-51.150;2023-04-09T23:42:57;6.13;;;2.90;;
64180;SDS011;62038;-29.692;-51.150;2023-04-09T23:45:28;9.52;;;3.10;;
64180;SDS011;62038;-29.692;-51.150;2023-04-09T23:48:00;11.55;;;2.80;;
64180;SDS011;62038;-29.692;-51.150;2023-04-09T23:50:32;18.38;;;2.90;;
64180;SDS011;62038;-29.692;-51.150;2023-04-09T23:53:04;9.18;;;2.63;;
